Auburn, Missouri
Current Conditions -  °F | °C
As of 4:54 PM on Wednesday 22 Oct 2014 (Local Time) from KSET Reporting Station
Clear Clear  
Wind Chill: 62°   Ceiling: Unl
Heat Index: 62°   Visibility: 10mi
Dew Point: 42°   Wind: 5mph
Humidity: 48%   Direction: 130°SE
Pressure: 30.21"   Gusts: NA
Location:  39.1646°N, 90.8436°W
Report Text: KSET 222154Z AUTO 13004KT 10SM CLR 17/06 A3021 RMK AO2 SLP230 T01670056 $
Loading
Personal Weather Stations






























Interactive Weather Map New forecast layout! Learn more

10-Day Weather Forecast

Advertisements
Track Severe Weather on mobile